Date,TemperatureHighF,TemperatureAvgF,TemperatureLowF,DewpointHighF,DewpointAvgF,DewpointLowF,HumidityHigh,HumidityAvg,HumidityLow,PressureMaxIn,PressureMinIn,WindSpeedMaxMPH,WindSpeedAvgMPH,GustSpeedMaxMPH,PrecipitationSumIn
2013-10-4,45.0,38.8,33.0,44.0,30.2,22.0,95,73,49,30.22,29.84,11,5,26,0.29
2013-10-5,62.0,46.9,32.0,25.0,18.1,10.0,75,36,13,30.22,30.12,14,4,29,0.01
2013-10-6,70.0,52.2,33.0,39.0,31.5,16.0,84,49,22,30.29,30.18,4,1,17,0.00
2013-10-7,75.0,49.9,32.0,45.0,36.7,30.0,96,68,24,30.22,29.96,5,0,11,0.00
2013-10-8,78.0,58.5,43.0,44.0,39.6,32.0,87,57,19,29.95,29.79,5,0,15,0.00
2013-10-9,65.0,53.8,40.0,44.0,41.2,36.0,88,65,41,30.02,29.84,3,0,9,0.00
2013-10-10,58.0,49.0,41.0,48.0,42.4,37.0,95,79,58,30.00,29.55,11,0,19,0.05
2013-10-18,48.0,36.1,29.0,33.0,29.0,25.0,95,77,43,30.22,30.11,6,1,13,0.43
2013-10-19,64.0,40.5,25.0,35.0,26.3,-99.9,93,66,29,30.10,29.92,3,0,8,0.01
2013-10-20,44.0,38.1,31.0,38.0,33.7,29.0,95,84,67,30.16,29.91,5,1,11,0.17
2013-10-21,60.0,41.4,25.0,41.0,29.2,24.0,97,69,28,30.18,30.08,8,1,20,0.01
2013-10-22,67.0,50.5,33.0,36.0,33.4,30.0,89,55,28,30.24,30.13,6,1,13,0.01
2013-10-23,67.0,49.0,31.0,39.0,34.0,29.0,92,61,32,30.25,30.14,6,1,15,0.00
2013-10-24,57.0,41.3,28.0,40.0,34.6,27.0,97,79,50,30.30,30.22,3,0,9,0.00
2013-10-25,73.0,52.3,28.0,42.0,33.7,27.0,97,56,22,30.26,30.10,5,0,11,0.00
2013-10-26,63.0,48.6,31.0,38.0,31.6,-99.9,89,58,35,30.37,30.19,5,1,11,0.00
2013-10-27,72.0,53.0,30.0,38.0,32.2,27.0,94,52,21,30.14,29.86,3,0,7,0.00
2013-10-28,50.0,36.0,32.0,34.0,29.7,-99.9,95,84,50,30.08,29.91,2,0,9,0.07
2013-10-29,38.0,34.4,32.0,34.0,32.0,31.0,96,91,81,30.05,29.92,3,0,8,0.01
2013-10-30,45.0,35.2,29.0,39.0,32.9,27.0,97,92,73,29.92,29.81,3,0,6,0.23